createdAt,value
2023-01-19T00:02:16.711Z,6.30
2023-01-19T00:07:20.239Z,6.13
2023-01-19T00:12:22.453Z,6.30
2023-01-19T00:17:24.623Z,6.38
2023-01-19T00:22:28.366Z,6.50
2023-01-19T00:27:34.973Z,6.13
2023-01-19T00:32:37.228Z,6.38
2023-01-19T00:37:40.897Z,6.07
2023-01-19T00:42:44.730Z,6.55
2023-01-19T00:47:47.813Z,6.43
2023-01-19T00:52:54.248Z,6.20
2023-01-19T00:57:57.102Z,7.22
2023-01-19T01:03:02.910Z,7.00
2023-01-19T01:08:06.724Z,7.03
2023-01-19T01:13:20.275Z,7.00
2023-01-19T01:18:24.056Z,7.70
2023-01-19T01:23:27.767Z,7.18
2023-01-19T01:28:29.987Z,7.20
2023-01-19T01:33:39.996Z,6.68
2023-01-19T01:38:45.002Z,6.55
2023-01-19T01:43:49.469Z,6.32
2023-01-19T01:48:56.488Z,6.70
2023-01-19T01:54:13.398Z,6.53
2023-01-19T01:59:26.131Z,6.50
2023-01-19T02:04:28.410Z,6.82
2023-01-19T02:09:52.895Z,6.38
2023-01-19T02:14:55.604Z,6.65
2023-01-19T02:19:58.187Z,6.13
2023-01-19T02:25:03.099Z,6.40
2023-01-19T02:30:06.183Z,6.40
2023-01-19T02:35:09.037Z,6.38
2023-01-19T02:40:19.787Z,6.32
2023-01-19T02:45:23.803Z,6.20
2023-01-19T02:50:46.329Z,7.03
2023-01-19T02:55:55.151Z,6.50
2023-01-19T03:01:08.670Z,5.90
2023-01-19T03:06:20.154Z,5.50
2023-01-19T03:11:28.664Z,6.00
2023-01-19T03:16:36.756Z,5.10
2023-01-19T03:21:43.171Z,5.30
2023-01-19T03:26:50.674Z,5.43
2023-01-19T03:31:58.230Z,5.53
2023-01-19T03:37:05.201Z,5.80
2023-01-19T03:42:12.710Z,6.00
2023-01-19T03:47:16.512Z,6.30
2023-01-19T03:52:18.712Z,6.00
2023-01-19T03:57:22.303Z,6.90
2023-01-19T04:02:24.969Z,6.30
2023-01-19T04:07:27.148Z,6.70
2023-01-19T04:12:30.900Z,7.28
2023-01-19T04:17:33.401Z,6.93
2023-01-19T04:22:35.719Z,7.03
2023-01-19T04:27:39.310Z,8.07
2023-01-19T04:32:41.485Z,8.15
2023-01-19T04:37:44.969Z,7.82
2023-01-19T04:42:48.593Z,8.60
2023-01-19T04:47:52.307Z,8.48
2023-01-19T04:52:54.460Z,8.50
2023-01-19T04:57:58.280Z,8.77
2023-01-19T05:03:01.667Z,9.05
2023-01-19T06:00:45.808Z,10.23
2023-01-19T06:05:48.088Z,10.63
2023-01-19T06:10:50.252Z,10.13
2023-01-19T06:15:59.651Z,10.13
2023-01-19T06:21:05.486Z,9.63
2023-01-19T06:26:07.830Z,10.40
2023-01-19T06:31:11.562Z,10.82
2023-01-19T06:36:13.808Z,9.68
2023-01-19T06:41:16.145Z,8.98
2023-01-19T06:46:19.717Z,10.07
2023-01-19T06:51:22.078Z,9.32
2023-01-19T06:56:24.345Z,9.27
2023-01-19T07:01:28.461Z,9.13
2023-01-19T07:06:30.701Z,8.35
2023-01-19T07:11:33.137Z,8.05
2023-01-19T07:16:36.825Z,7.95
2023-01-19T07:21:39.188Z,7.43
2023-01-19T07:26:41.363Z,7.22
2023-01-19T07:31:44.961Z,7.38
2023-01-19T07:36:47.191Z,7.38
2023-01-19T07:41:49.804Z,7.32
2023-01-19T07:46:55.906Z,8.10
2023-01-19T07:51:58.074Z,8.18
2023-01-19T07:57:00.868Z,8.35
2023-01-19T08:02:04.631Z,8.50
2023-01-19T08:07:06.942Z,8.82
2023-01-19T08:12:09.200Z,8.52
2023-01-19T08:17:14.459Z,8.45
2023-01-19T08:22:16.641Z,8.05
2023-01-19T08:27:19.047Z,8.18
2023-01-19T08:32:22.624Z,8.40
2023-01-19T08:37:25.274Z,8.57
2023-01-19T08:42:28.163Z,8.52
2023-01-19T08:47:32.328Z,8.45
2023-01-19T08:52:34.515Z,8.00
2023-01-19T08:57:36.690Z,7.82
2023-01-19T09:02:40.307Z,7.90
2023-01-19T09:07:42.816Z,7.22
2023-01-19T09:12:46.506Z,7.05
2023-01-19T09:17:50.137Z,7.10
2023-01-19T09:22:52.361Z,6.70
2023-01-19T09:27:56.178Z,6.55
2023-01-19T09:33:04.723Z,6.32
2023-01-19T09:38:07.545Z,6.00
2023-01-19T09:43:16.607Z,6.00
2023-01-19T09:48:29.771Z,5.53
2023-01-19T09:53:44.924Z,6.25
2023-01-19T09:58:47.858Z,6.75
2023-01-19T10:04:01.673Z,5.57
2023-01-19T10:09:11.342Z,5.45
2023-01-19T10:14:21.032Z,5.68
2023-01-19T10:19:29.940Z,5.40
2023-01-19T10:24:38.931Z,5.88
2023-01-19T10:29:41.147Z,6.15
2023-01-19T10:34:44.824Z,7.05
2023-01-19T10:39:48.487Z,7.57
2023-01-19T10:44:51.268Z,7.75
2023-01-19T10:49:55.235Z,6.95
2023-01-19T10:54:59.169Z,6.40
2023-01-19T11:00:01.416Z,6.25
2023-01-19T11:05:24.243Z,5.22
2023-01-19T11:10:28.569Z,5.35
2023-01-19T11:15:34.905Z,5.65
2023-01-19T11:20:49.195Z,5.00
2023-01-19T11:25:55.560Z,4.70
2023-01-19T11:30:59.906Z,4.78
2023-01-19T11:36:08.328Z,4.13
2023-01-19T11:41:19.203Z,3.10
2023-01-19T11:46:23.759Z,2.97
2023-01-19T11:51:31.303Z,3.28
2023-01-19T11:56:33.533Z,4.05
2023-01-19T12:01:41.252Z,3.78
2023-01-19T12:06:47.830Z,3.85
2023-01-19T12:11:54.571Z,3.10
2023-01-19T12:17:01.451Z,2.80
2023-01-19T12:22:05.910Z,3.33
2023-01-19T12:27:16.734Z,3.67
2023-01-19T12:32:20.651Z,3.45
2023-01-19T12:37:42.404Z,3.75
2023-01-19T12:42:47.667Z,3.92
2023-01-19T12:47:53.174Z,3.67
2023-01-19T12:52:59.833Z,3.97
2023-01-19T12:58:08.628Z,3.90
2023-01-19T13:03:55.922Z,3.63
2023-01-19T13:09:01.668Z,3.70
2023-01-19T13:14:36.718Z,4.00
2023-01-19T13:19:46.528Z,4.30
2023-01-19T13:25:08.832Z,4.88
2023-01-19T13:30:18.985Z,7.88
2023-01-19T13:35:22.118Z,11.35
2023-01-19T13:40:30.971Z,13.15
2023-01-19T13:45:35.462Z,13.40
2023-01-19T13:50:39.823Z,13.88
2023-01-19T13:55:43.659Z,12.85
2023-01-19T14:00:47.525Z,12.98
2023-01-19T14:05:52.777Z,13.23
2023-01-19T14:11:04.336Z,12.70
2023-01-19T14:16:08.733Z,13.48
2023-01-19T14:21:15.269Z,11.55
2023-01-19T14:26:46.507Z,12.00
2023-01-19T14:31:50.911Z,11.43
2023-01-19T14:36:53.541Z,11.52
2023-01-19T14:42:00.490Z,10.68
2023-01-19T14:47:03.587Z,12.07
2023-01-19T14:52:09.746Z,10.93
2023-01-19T14:57:15.449Z,10.73
2023-01-19T15:02:19.716Z,14.32
2023-01-19T15:07:23.799Z,13.95
2023-01-19T15:12:30.068Z,13.77
2023-01-19T15:17:32.654Z,14.68
2023-01-19T15:22:35.106Z,14.65
2023-01-19T15:27:38.879Z,14.98
2023-01-19T15:32:43.949Z,14.23
2023-01-19T15:37:46.571Z,14.82
2023-01-19T15:42:50.978Z,14.38
2023-01-19T15:47:53.452Z,15.30
2023-01-19T15:52:55.885Z,14.15
2023-01-19T15:58:01.764Z,14.98
2023-01-19T16:03:04.601Z,14.90
2023-01-19T16:08:07.281Z,14.90
2023-01-19T16:13:12.726Z,14.32
2023-01-19T16:18:15.179Z,13.88
2023-01-19T16:23:17.542Z,22.88
2023-01-19T16:28:21.485Z,14.57
2023-01-19T16:33:24.189Z,13.65
2023-01-19T16:38:26.962Z,13.85
2023-01-19T16:43:30.746Z,12.88
2023-01-19T16:48:33.492Z,13.68
2023-01-19T16:53:37.012Z,14.35
2023-01-19T16:58:41.859Z,12.85
2023-01-19T17:03:45.230Z,12.52
2023-01-19T17:08:48.511Z,12.85
2023-01-19T17:13:56.415Z,12.82
2023-01-19T17:19:01.169Z,12.85
2023-01-19T17:24:06.007Z,12.52
2023-01-19T17:29:17.761Z,12.73
2023-01-19T17:34:21.231Z,13.20
2023-01-19T17:39:24.547Z,12.27
2023-01-19T17:44:29.757Z,12.10
2023-01-19T17:49:33.647Z,13.48
2023-01-19T17:54:41.499Z,13.70
2023-01-19T17:59:47.861Z,13.00
2023-01-19T18:04:51.186Z,12.73
2023-01-19T18:09:57.386Z,12.27
2023-01-19T18:15:05.482Z,12.20
2023-01-19T18:20:11.331Z,12.75
2023-01-19T18:25:15.175Z,12.38
2023-01-19T18:30:21.794Z,12.82
2023-01-19T18:35:24.545Z,12.65
2023-01-19T18:40:28.798Z,12.65
2023-01-19T18:45:33.208Z,12.93
2023-01-19T18:50:37.407Z,12.75
2023-01-19T18:55:41.208Z,12.20
2023-01-19T19:00:46.441Z,13.48
2023-01-19T19:05:51.563Z,13.00
2023-01-19T19:10:55.779Z,12.40
2023-01-19T19:16:06.982Z,13.70
2023-01-19T19:21:12.450Z,13.00
2023-01-19T19:26:15.873Z,12.68
2023-01-19T19:31:23.108Z,12.90
2023-01-19T19:36:33.661Z,13.30
2023-01-19T19:41:39.368Z,13.75
2023-01-19T19:46:44.463Z,14.00
2023-01-19T19:51:50.341Z,13.85
2023-01-19T19:56:56.165Z,13.48
2023-01-19T20:02:03.165Z,14.13
2023-01-19T20:07:07.116Z,13.75
2023-01-19T20:12:11.291Z,13.48
2023-01-19T20:17:16.118Z,14.63
2023-01-19T20:22:19.383Z,13.90
2023-01-19T20:27:25.685Z,14.68
2023-01-19T20:32:34.048Z,14.20
2023-01-19T20:37:37.952Z,14.82
2023-01-19T20:42:43.760Z,13.98
2023-01-19T20:47:50.655Z,13.50
2023-01-19T20:52:54.279Z,13.25
2023-01-19T20:57:56.819Z,14.15
2023-01-19T21:03:02.130Z,13.50
2023-01-19T21:08:05.586Z,13.32
2023-01-19T21:13:08.712Z,13.63
2023-01-19T21:18:12.839Z,12.93
2023-01-19T21:23:15.977Z,12.70
2023-01-19T21:28:19.657Z,13.63
2023-01-19T21:33:23.986Z,14.52
2023-01-19T21:38:27.892Z,13.57
2023-01-19T21:43:30.364Z,12.73
2023-01-19T21:48:34.039Z,13.05
2023-01-19T21:53:36.381Z,13.10
2023-01-19T21:58:38.726Z,12.35
2023-01-19T22:03:42.814Z,12.10
2023-01-19T22:08:47.947Z,11.65
2023-01-19T22:13:50.405Z,11.38
2023-01-19T22:18:56.480Z,12.02
2023-01-19T22:24:00.510Z,11.75
2023-01-19T22:29:11.104Z,11.47
2023-01-19T22:34:17.109Z,11.25
2023-01-19T22:39:19.323Z,11.27
2023-01-19T22:44:23.205Z,10.65
2023-01-19T22:49:27.162Z,9.93
2023-01-19T22:54:30.038Z,10.05
2023-01-19T22:59:32.253Z,9.82
2023-01-19T23:04:35.955Z,9.60
2023-01-19T23:09:39.191Z,10.25
2023-01-19T23:14:41.417Z,9.40
2023-01-19T23:19:44.931Z,9.05
2023-01-19T23:24:47.106Z,8.38
2023-01-19T23:29:49.362Z,9.00
2023-01-19T23:34:52.991Z,8.68
2023-01-19T23:39:55.177Z,8.90
2023-01-19T23:44:57.332Z,8.38
2023-01-19T23:50:00.954Z,8.85
2023-01-19T23:55:03.196Z,9.60
